ADDS TAF Board (Experimental) INFO Settings
IDs: Format: Expanded Condensed

KCVG - Cincinnati Intl, KY, US

Issued at 2336 UTC 05 Jul 2015
Updated at: 0459 UTC 06 Jul 2015
Time0452Z 06/05Z 06/06Z 06/07Z 06/08Z 06/09Z 06/10Z 06/11Z 06/12Z 06/13Z 06/14Z 06/15Z 06/16Z 06/17Z
Type OBS PRVL PRVL PRVL PRVL
  [TEMP]  
PRVL
  [TEMP]  
PRVL
  [TEMP]  
PRVL
  [TEMP]  
PRVL PRVL PRVL PRVL PRVL PRVL
VIS 7 >6 >6 >6 >6
  [5]  
>6
  [5]  
>6
  [5]  
>6
  [5]  
>6 >6 >6 >6 >6 >6
CIG 220 250 250 250 250
  [250]  
250
  [250]  
250
  [250]  
250
  [250]  
250 250 250 250 250 250
Cover OVC BKN BKN BKN BKN
  [BKN]  
BKN
  [BKN]  
BKN
  [BKN]  
BKN
  [BKN]  
BKN BKN BKN BKN BKN BKN
FltCat VFR VFR VFR VFR VFR
  [MVFR]  
VFR
  [MVFR]  
VFR
  [MVFR]  
VFR
  [MVFR]  
VFR VFR VFR VFR VFR VFR
WX -- -- -- -- --
  [BR]  
--
  [BR]  
--
  [BR]  
--
  [BR]  
-- -- -- -- -- --
WDir 260 VRB VRB VRB VRB
[VRB]
VRB
[VRB]
VRB
[VRB]
VRB
[VRB]
VRB VRB VRB 230 230 230
WSpd 3 3 3 3 3
  [3]  
3
  [3]  
3
  [3]  
3
  [3]  
3 3 3 7 7 7
WGst -- -- -- -- --
  [--]  
--
  [--]  
--
  [--]  
--
  [--]  
-- -- -- -- -- --
R09/27
XWnd -1 VRB VRB VRB 3 3 3 3 VRB VRB VRB -4 -4 -4
XGst -- -- -- -- 0 0 0 0 -- -- -- -- -- --
HWnd -3 VRB VRB VRB 0 0 0 0 VRB VRB VRB -5 -5 -5
HGst -- -- -- -- 0 0 0 0 -- -- -- -- -- --
R18/36
XWnd -3 VRB VRB VRB 0 0 0 0 VRB VRB VRB -5 -5 -5
XGst -- -- -- -- 0 0 0 0 -- -- -- -- -- --
HWnd 1 VRB VRB VRB -3 -3 -3 -3 VRB VRB VRB 4 4 4
HGst -- -- -- -- 0 0 0 0 -- -- -- -- -- --

NOTE: TEMPO conditions in [brackets]. Keep in mind TEMPO conditions might be better (lower impact) than prevailing conditions.

Raw TAF
KCVG 052336Z 0600/0706 VRB03KT P6SM SCT150 BKN250
  TEMPO 0608/0612 5SM BR
  FM061500 23007KT P6SM SCT040 BKN250
  FM070000 20005KT P6SM SCT250


Raw METAR
KCVG 060452Z 26003KT 7SM FEW170 OVC220 19/17 A3009 RMK AO2 SLP179 T01890167 402610183 $
KCVG 060352Z 00000KT 8SM SCT180 BKN230 18/17 A3010 RMK AO2 SLP184 T01830167 $
KCVG 060252Z 00000KT 10SM FEW170 BKN220 20/16 A3009 RMK AO2 SLP182 T02000161 53011 $
KCVG 060152Z 04003KT 10SM BKN200 22/16 A3007 RMK AO2 SLP175 T02220161 $

METAR Board
Radar Display
Forecast Discussion

TAF Board Legend

Potential Impact
Threat None Slight Moderate High
Visibility (sm) ≥5.1 5.1>X≥3 3>X≥1 <1
Ceiling (100 ft) ≥30.1 30.1>X≥10 10>X≥5 <5
Wind Speed (kt) <10 10≤X<20 20≤X<30 ≥30
Wind Gust (kt) <15 15≤X<25 25≤X<35 ≥35
Weather No Wx Reported VCTS,-TS,-FZRA,SN TS,FZRA +TS,+FZRA,+SN